Albert J Ellis Airport Jacksonville US
ICAO: KOAJ
IATA: OAJ
Category: Medium
Scheduled Services: No

Elevation: 94 ft
TransAlt. 18000 ft.

Airport Communications:
WILMINGTON APP/DEP:121.4
AWOS 3:124.475
CTAF/UNICOM:123

KOAJ Zoom In..

If you have problems with the map follow the link
https://www.worldairports.se/pages/airport.php?
ICAO=KOAJ

Runways:

(A) RW 05 length 7100 ft width 150 ft
ILS 108.70 / hdg 52

(B) RW 23 length 7100 ft width 150 ft
---- / hdg 232

Location; KOAJ
Day. 20 / Time. 20.56 Zulu
* Altimeter: 30.15
* Temperature: 13° c. 55.4°f.
* Wind from: 010° Speed 03 kn.
Dewpoint: 13° c.
Visibility: 3 Statute Miles.
Clouds: Overcast 400 ft.
Conditions: Light Rain.Conditions: Mist.

KOAJ 202056Z 01003KT 3SM -RA BR OVC004 13/13 A3015 RMK AO2 SLP216 P0001 60002 T01330133 58013


Wind From 010°
Speed 03 kn.

 
 
jpsmedia.com for Web Design worldairports.se 2019   terms of use